Time,TemperatureF,DewpointF,PressureIn,WindDirection,WindDirectionDegrees,WindSpeedMPH,WindSpeedGustMPH,Humidity,HourlyPrecipIn,Conditions,Clouds,dailyrainin,SoftwareType,DateUTC
2013-03-02 00:00:00,58.1,49.1,29.98,WNW,287,3.4,5.8,72,0.00,CLR,,0.01,WeatherDisplay:10.37,2013-03-02 05:00:00,
2013-03-02 00:01:00,58.1,49.1,29.98,West,275,3.7,5.8,72,0.00,RA,,0.00,WeatherDisplay:10.37,2013-03-02 05:01:00,
2013-03-02 00:06:00,58.1,49.1,29.97,WNW,286,0.9,3.5,72,0.00,RA,,0.00,WeatherDisplay:10.37,2013-03-02 05:06:00,
2013-03-02 00:11:00,58.1,49.1,29.98,WNW,299,5.6,5.8,72,0.00,CLR,,0.00,WeatherDisplay:10.37,2013-03-02 05:11:00,
2013-03-02 00:16:00,58.1,49.1,29.98,West,281,5.7,6.9,72,0.00,CLR,,0.00,WeatherDisplay:10.37,2013-03-02 05:16:00,
2013-03-02 00:21:00,58.1,49.1,29.98,West,267,4.8,4.8,72,0.00,CLR,,0.00,WeatherDisplay:10.37,2013-03-02 05:21:00,
2013-03-02 00:26:00,58.0,49.0,29.98,WSW,245,4.3,9.2,72,0.00,CLR,,0.00,WeatherDisplay:10.37,2013-03-02 05:26:00,
2013-03-02 00:31:00,58.0,49.4,29.98,NNW,328,4.2,4.2,73,0.00,CLR,,0.00,WeatherDisplay:10.37,2013-03-02 05:31:00,
2013-03-02 00:36:00,57.9,48.9,29.97,WSW,253,3.5,6.9,72,0.00,CLR,,0.00,WeatherDisplay:10.37,2013-03-02 05:36:00,
2013-03-02 00:41:00,57.9,49.3,29.97,West,271,3.7,5.8,73,0.00,CLR,,0.00,WeatherDisplay:10.37,2013-03-02 05:41:00,
2013-03-02 00:46:00,57.8,49.2,29.97,West,281,1.2,3.5,73,0.00,CLR,,0.00,WeatherDisplay:10.37,2013-03-02 05:46:00,
2013-03-02 00:51:00,57.7,48.4,29.97,NNW,339,8.3,10.4,71,0.00,CLR,,0.00,WeatherDisplay:10.37,2013-03-02 05:51:00,
2013-03-02 00:56:00,57.6,48.3,29.97,WNW,285,4.6,5.8,71,0.00,CLR,,0.00,WeatherDisplay:10.37,2013-03-02 05:56:00,
2013-03-02 01:01:00,57.6,48.3,29.97,WNW,288,4.6,9.2,71,0.00,CLR,,0.00,WeatherDisplay:10.37,2013-03-02 06:01:00,
2013-03-02 01:06:00,57.5,48.5,29.98,WNW,297,7.4,9.2,72,0.00,CLR,,0.00,WeatherDisplay:10.37,2013-03-02 06:06:00,
2013-03-02 01:11:00,57.5,48.5,29.98,NW,313,5.0,5.0,72,0.00,CLR,,0.00,WeatherDisplay:10.37,2013-03-02 06:11:00,
2013-03-02 01:16:00,57.5,48.9,29.96,WNW,285,3.5,6.9,73,0.00,CLR,,0.00,WeatherDisplay:10.37,2013-03-02 06:16:00,
2013-03-02 01:21:00,57.3,48.7,29.97,WNW,289,4.3,6.9,73,0.00,CLR,,0.00,WeatherDisplay:10.37,2013-03-02 06:21:00,
2013-03-02 01:26:00,57.1,47.8,29.97,WNW,286,5.8,11.5,71,0.00,CLR,,0.00,WeatherDisplay:10.37,2013-03-02 06:26:00,
2013-03-02 01:31:00,57.0,48.1,29.96,WNW,292,3.8,8.1,72,0.00,CLR,,0.00,WeatherDisplay:10.37,2013-03-02 06:31:00,
2013-03-02 01:36:00,56.9,48.0,29.97,NW,317,6.4,11.5,72,0.00,CLR,,0.00,WeatherDisplay:10.37,2013-03-02 06:36:00,
2013-03-02 01:41:00,56.9,48.0,29.97,NW,312,4.9,8.1,72,0.00,CLR,,0.00,WeatherDisplay:10.37,2013-03-02 06:41:00,
2013-03-02 01:46:00,56.8,47.9,29.97,WNW,292,5.0,8.1,72,0.00,CLR,,0.00,WeatherDisplay:10.37,2013-03-02 06:46:00,
2013-03-02 01:51:00,56.7,47.4,29.97,NW,308,4.9,8.1,71,0.00,CLR,,0.00,WeatherDisplay:10.37,2013-03-02 06:51:00,
2013-03-02 01:56:00,56.6,46.9,29.97,WNW,288,3.1,3.5,70,0.00,CLR,,0.00,WeatherDisplay:10.37,2013-03-02 06:56:00,
2013-03-02 02:01:00,56.6,46.5,29.97,West,281,5.1,8.1,69,0.00,CLR,,0.00,WeatherDisplay:10.37,2013-03-02 07:01:00,
2013-03-02 02:06:00,56.5,45.7,29.97,NNW,327,4.0,4.6,67,0.00,CLR,,0.00,WeatherDisplay:10.37,2013-03-02 07:06:00,
2013-03-02 02:11:00,56.5,45.3,29.97,NNW,327,6.8,10.4,66,0.00,CLR,,0.00,WeatherDisplay:10.37,2013-03-02 07:11:00,
2013-03-02 02:16:00,56.4,45.2,29.97,WNW,299,3.3,3.5,66,0.00,CLR,,0.00,WeatherDisplay:10.37,2013-03-02 07:16:00,
2013-03-02 02:21:00,56.4,45.2,29.97,WNW,284,6.8,11.5,66,0.00,CLR,,0.00,WeatherDisplay:10.37,2013-03-02 07:21:00,
2013-03-02 02:26:00,56.4,45.2,29.97,WNW,286,7.0,10.4,66,0.00,CLR,,0.00,WeatherDisplay:10.37,2013-03-02 07:26:00,
2013-03-02 02:32:00,56.3,45.1,29.97,WNW,300,5.8,11.5,66,0.00,CLR,,0.00,WeatherDisplay:10.37,2013-03-02 07:32:00,
2013-03-02 02:37:00,56.2,45.0,29.97,WNW,283,4.9,9.2,66,0.00,CLR,,0.00,WeatherDisplay:10.37,2013-03-02 07:37:00,
2013-03-02 02:42:00,56.1,44.9,29.96,WNW,290,4.3,4.6,66,0.00,CLR,,0.00,WeatherDisplay:10.37,2013-03-02 07:42:00,
2013-03-02 02:47:00,56.0,45.2,29.97,NW,325,6.3,10.4,67,0.00,CLR,,0.00,WeatherDisplay:10.37,2013-03-02 07:47:00,
2013-03-02 02:52:00,56.0,45.2,29.96,WNW,300,4.0,6.9,67,0.00,CLR,,0.00,WeatherDisplay:10.37,2013-03-02 07:52:00,
2013-03-02 02:57:00,56.0,45.6,29.97,West,281,2.2,8.1,68,0.00,CLR,,0.00,WeatherDisplay:10.37,2013-03-02 07:57:00,
2013-03-02 03:02:00,56.0,45.6,29.97,NW,304,6.6,11.5,68,0.00,CLR,,0.00,WeatherDisplay:10.37,2013-03-02 08:02:00,
2013-03-02 03:07:00,55.9,45.5,29.97,West,276,4.6,8.1,68,0.00,CLR,,0.00,WeatherDisplay:10.37,2013-03-02 08:07:00,
2013-03-02 03:12:00,55.8,45.4,29.97,WNW,290,4.1,6.0,68,0.00,CLR,,0.00,WeatherDisplay:10.37,2013-03-02 08:12:00,
2013-03-02 03:17:00,55.7,45.3,29.96,NW,316,6.9,10.4,68,0.00,CLR,,0.00,WeatherDisplay:10.37,2013-03-02 08:17:00,
2013-03-02 03:22:00,55.7,45.3,29.96,NW,305,5.5,5.5,68,0.00,CLR,,0.00,WeatherDisplay:10.37,2013-03-02 08:22:00,
2013-03-02 03:27:00,55.6,44.8,29.97,WNW,302,4.2,5.8,67,0.00,CLR,,0.00,WeatherDisplay:10.37,2013-03-02 08:27:00,
2013-03-02 03:32:00,55.6,44.4,29.97,WSW,254,5.6,9.2,66,0.00,CLR,,0.00,WeatherDisplay:10.37,2013-03-02 08:32:00,
2013-03-02 03:37:00,55.6,44.8,29.97,NW,317,3.7,4.6,67,0.00,CLR,,0.00,WeatherDisplay:10.37,2013-03-02 08:37:00,
2013-03-02 03:42:00,55.5,44.7,29.97,WNW,295,3.4,3.5,67,0.00,CLR,,0.00,WeatherDisplay:10.37,2013-03-02 08:42:00,
2013-03-02 03:47:00,55.5,44.7,29.98,NW,313,5.3,6.9,67,0.00,CLR,,0.00,WeatherDisplay:10.37,2013-03-02 08:47:00,
2013-03-02 03:52:00,55.4,44.2,29.97,WNW,303,6.3,13.8,66,0.00,CLR,,0.00,WeatherDisplay:10.37,2013-03-02 08:52:00,
2013-03-02 03:57:00,55.4,44.6,29.97,WNW,284,8.5,13.8,67,0.00,CLR,,0.00,WeatherDisplay:10.37,2013-03-02 08:57:00,
2013-03-02 04:02:00,55.4,44.6,29.97,WNW,284,7.3,11.5,67,0.00,CLR,,0.00,WeatherDisplay:10.37,2013-03-02 09:02:00,
2013-03-02 04:07:00,55.3,44.5,29.97,WNW,286,5.3,10.4,67,0.00,CLR,,0.00,WeatherDisplay:10.37,2013-03-02 09:07:00,
2013-03-02 04:12:00,55.3,44.5,29.97,NW,322,4.7,5.8,67,0.00,CLR,,0.00,WeatherDisplay:10.37,2013-03-02 09:12:00,
2013-03-02 04:17:00,55.3,44.5,29.97,NW,304,5.5,9.2,67,0.00,CLR,,0.00,WeatherDisplay:10.37,2013-03-02 09:17:00,
2013-03-02 04:22:00,55.3,44.9,29.97,WNW,289,5.8,11.5,68,0.00,CLR,,0.00,WeatherDisplay:10.37,2013-03-02 09:22:00,
2013-03-02 04:27:00,55.3,44.5,29.97,WNW,290,4.5,9.2,67,0.00,CLR,,0.00,WeatherDisplay:10.37,2013-03-02 09:27:00,
2013-03-02 04:32:00,55.2,44.4,29.97,WNW,286,7.8,11.5,67,0.00,CLR,,0.00,WeatherDisplay:10.37,2013-03-02 09:32:00,
2013-03-02 04:37:00,55.2,44.8,29.97,NW,309,8.5,11.5,68,0.00,CLR,,0.00,WeatherDisplay:10.37,2013-03-02 09:37:00,
2013-03-02 04:42:00,55.2,44.8,29.97,NW,306,5.4,9.2,68,0.00,CLR,,0.00,WeatherDisplay:10.37,2013-03-02 09:42:00,
2013-03-02 04:47:00,55.1,44.3,29.97,WNW,300,6.0,10.4,67,0.00,CLR,,0.00,WeatherDisplay:10.37,2013-03-02 09:47:00,
2013-03-02 04:52:00,55.1,44.3,29.97,WNW,288,3.4,6.9,67,0.00,CLR,,0.00,WeatherDisplay:10.37,2013-03-02 09:52:00,
2013-03-02 04:57:00,55.1,44.3,29.97,West,276,8.1,9.2,67,0.00,CLR,,0.00,WeatherDisplay:10.37,2013-03-02 09:57:00,
2013-03-02 05:02:00,55.1,44.3,29.97,NW,320,7.6,15.0,67,0.00,CLR,,0.00,WeatherDisplay:10.37,2013-03-02 10:02:00,
2013-03-02 05:07:00,55.0,44.2,29.97,WNW,286,6.2,8.1,67,0.00,CLR,,0.00,WeatherDisplay:10.37,2013-03-02 10:07:00,
2013-03-02 05:13:00,55.0,44.6,29.98,NW,317,6.8,6.8,68,0.00,CLR,,0.00,WeatherDisplay:10.37,2013-03-02 10:13:00,
2013-03-02 05:18:00,55.0,44.6,29.97,NW,304,3.4,8.1,68,0.00,CLR,,0.00,WeatherDisplay:10.37,2013-03-02 10:18:00,
2013-03-02 05:23:00,54.9,44.5,29.98,WNW,286,0.1,4.6,68,0.00,CLR,,0.00,WeatherDisplay:10.37,2013-03-02 10:23:00,
2013-03-02 05:28:00,54.9,44.5,29.98,NW,323,4.1,6.9,68,0.00,CLR,,0.00,WeatherDisplay:10.37,2013-03-02 10:28:00,
2013-03-02 05:33:00,54.9,44.5,29.98,WNW,294,3.7,6.9,68,0.00,CLR,,0.00,WeatherDisplay:10.37,2013-03-02 10:33:00,
2013-03-02 05:38:00,54.9,44.1,29.99,WNW,292,1.9,6.9,67,0.00,CLR,,0.00,WeatherDisplay:10.37,2013-03-02 10:38:00,
2013-03-02 05:43:00,54.9,44.5,29.99,West,268,6.6,9.2,68,0.00,CLR,,0.00,WeatherDisplay:10.37,2013-03-02 10:43:00,
2013-03-02 05:48:00,55.0,44.6,29.99,West,264,2.2,3.5,68,0.00,CLR,,0.00,WeatherDisplay:10.37,2013-03-02 10:48:00,
2013-03-02 05:53:00,55.0,44.6,29.99,WNW,292,5.2,8.1,68,0.00,CLR,,0.00,WeatherDisplay:10.37,2013-03-02 10:53:00,
2013-03-02 05:58:00,55.0,44.6,29.99,WNW,292,1.5,3.5,68,0.00,CLR,,0.00,WeatherDisplay:10.37,2013-03-02 10:58:00,
2013-03-02 06:03:00,55.0,44.6,29.99,NW,306,5.6,5.8,68,0.00,CLR,,0.00,WeatherDisplay:10.37,2013-03-02 11:03:00,
2013-03-02 06:08:00,55.0,44.6,30.00,WNW,286,6.4,10.4,68,0.00,CLR,,0.00,WeatherDisplay:10.37,2013-03-02 11:08:00,
2013-03-02 06:13:00,55.0,44.6,30.00,NNW,328,5.6,9.2,68,0.00,CLR,,0.00,WeatherDisplay:10.37,2013-03-02 11:13:00,
2013-03-02 06:18:00,55.0,44.6,30.00,NW,312,1.8,3.5,68,0.00,CLR,,0.00,WeatherDisplay:10.37,2013-03-02 11:18:00,
2013-03-02 06:23:00,55.0,45.0,30.01,West,281,4.6,10.4,69,0.00,CLR,,0.00,WeatherDisplay:10.37,2013-03-02 11:23:00,
2013-03-02 06:28:00,55.0,45.0,30.01,NW,307,5.0,9.2,69,0.00,CLR,,0.00,WeatherDisplay:10.37,2013-03-02 11:28:00,
2013-03-02 06:33:00,55.0,45.0,30.01,WNW,302,6.3,8.1,69,0.00,CLR,,0.00,WeatherDisplay:10.37,2013-03-02 11:33:00,
2013-03-02 06:38:00,55.0,45.0,30.01,NW,304,2.9,3.5,69,0.00,CLR,,0.00,WeatherDisplay:10.37,2013-03-02 11:38:00,
2013-03-02 06:43:00,55.0,45.4,30.01,NW,316,3.7,6.9,70,0.00,CLR,,0.00,WeatherDisplay:10.37,2013-03-02 11:43:00,
2013-03-02 06:48:00,55.0,45.4,30.02,WNW,294,3.4,5.8,70,0.00,CLR,,0.00,WeatherDisplay:10.37,2013-03-02 11:48:00,
2013-03-02 06:53:00,55.0,45.4,30.01,NW,318,4.4,6.0,70,0.00,CLR,,0.00,WeatherDisplay:10.37,2013-03-02 11:53:00,
2013-03-02 06:58:00,55.0,45.4,30.01,WNW,301,3.7,6.9,70,0.00,CLR,,0.00,WeatherDisplay:10.37,2013-03-02 11:58:00,
2013-03-02 07:03:00,55.1,45.1,30.02,WNW,302,4.4,9.2,69,0.00,CLR,,0.00,WeatherDisplay:10.37,2013-03-02 12:03:00,
2013-03-02 07:09:00,55.1,45.5,30.02,NNW,331,6.5,9.2,70,0.00,CLR,,0.00,WeatherDisplay:10.37,2013-03-02 12:09:00,
2013-03-02 07:14:00,55.1,45.1,30.02,NW,317,9.4,15.0,69,0.00,CLR,,0.00,WeatherDisplay:10.37,2013-03-02 12:14:00,
2013-03-02 07:19:00,55.0,45.4,30.02,NW,315,6.2,15.0,70,0.00,CLR,,0.00,WeatherDisplay:10.37,2013-03-02 12:19:00,
2013-03-02 07:24:00,55.0,45.4,30.02,NNW,329,6.8,6.8,70,0.00,CLR,,0.00,WeatherDisplay:10.37,2013-03-02 12:24:00,
2013-03-02 07:29:00,55.0,45.8,30.02,NW,326,4.2,8.0,71,0.00,CLR,,0.00,WeatherDisplay:10.37,2013-03-02 12:29:00,
2013-03-02 07:34:00,55.0,45.4,30.02,NW,325,5.4,10.4,70,0.00,CLR,,0.00,WeatherDisplay:10.37,2013-03-02 12:34:00,
2013-03-02 07:39:00,54.9,45.7,30.02,NW,317,10.4,10.4,71,0.00,CLR,,0.00,WeatherDisplay:10.37,2013-03-02 12:39:00,
2013-03-02 07:44:00,54.9,45.7,30.03,NW,320,7.8,11.5,71,0.00,CLR,,0.00,WeatherDisplay:10.37,2013-03-02 12:44:00,
2013-03-02 07:49:00,54.9,45.7,30.02,NNW,329,8.6,15.0,71,0.00,CLR,,0.00,WeatherDisplay:10.37,2013-03-02 12:49:00,
2013-03-02 07:54:00,54.8,45.9,30.03,NW,313,5.1,6.9,72,0.00,CLR,,0.00,WeatherDisplay:10.37,2013-03-02 12:54:00,
2013-03-02 07:59:00,54.8,45.9,30.02,NW,315,6.3,9.2,72,0.00,CLR,,0.00,WeatherDisplay:10.37,2013-03-02 12:59:00,
2013-03-02 08:04:00,54.8,46.3,30.03,NW,310,3.0,6.9,73,0.00,CLR,,0.00,WeatherDisplay:10.37,2013-03-02 13:04:00,
2013-03-02 08:09:00,54.6,45.4,30.03,WNW,296,9.7,12.7,71,0.00,CLR,,0.00,WeatherDisplay:10.37,2013-03-02 13:09:00,
2013-03-02 08:14:00,54.6,45.8,30.03,NNW,341,9.2,13.8,72,0.00,CLR,,0.00,WeatherDisplay:10.37,2013-03-02 13:14:00,
2013-03-02 08:19:00,54.6,46.1,30.03,North,5,4.7,6.9,73,0.00,CLR,,0.00,WeatherDisplay:10.37,2013-03-02 13:19:00,
2013-03-02 08:24:00,54.5,44.5,30.03,NW,313,8.5,12.7,69,0.00,CLR,,0.00,WeatherDisplay:10.37,2013-03-02 13:24:00,
2013-03-02 08:29:00,54.4,43.7,30.03,NW,306,9.0,15.0,67,0.00,CLR,,0.00,WeatherDisplay:10.37,2013-03-02 13:29:00,
2013-03-02 08:34:00,54.5,44.5,30.02,NNW,345,3.2,6.9,69,0.00,CLR,,0.00,WeatherDisplay:10.37,2013-03-02 13:34:00,
2013-03-02 08:39:00,54.5,44.5,30.03,NNW,327,8.2,11.5,69,0.00,CLR,,0.00,WeatherDisplay:10.37,2013-03-02 13:39:00,
2013-03-02 08:44:00,54.5,44.9,30.03,North,11,6.8,8.1,70,0.00,CLR,,0.00,WeatherDisplay:10.37,2013-03-02 13:44:00,
2013-03-02 08:49:00,54.6,45.4,30.03,NNW,345,5.9,9.2,71,0.00,CLR,,0.00,WeatherDisplay:10.37,2013-03-02 13:49:00,
2013-03-02 08:54:00,54.4,44.1,30.04,NW,305,7.7,11.5,68,0.00,CLR,,0.00,WeatherDisplay:10.37,2013-03-02 13:54:00,
2013-03-02 08:59:00,54.3,44.0,30.03,NNW,345,6.2,9.2,68,0.00,CLR,,0.00,WeatherDisplay:10.37,2013-03-02 13:59:00,
2013-03-02 09:04:00,54.2,43.9,30.03,NNE,30,2.8,8.1,68,0.00,CLR,,0.00,WeatherDisplay:10.37,2013-03-02 14:04:00,
2013-03-02 09:09:00,54.3,44.0,30.04,NW,326,4.3,6.9,68,0.00,CLR,,0.00,WeatherDisplay:10.37,2013-03-02 14:09:00,
2013-03-02 09:14:00,54.4,43.7,30.03,NNW,329,6.1,10.4,67,0.00,CLR,,0.00,WeatherDisplay:10.37,2013-03-02 14:14:00,
2013-03-02 09:19:00,54.5,43.8,30.03,NW,310,3.5,6.9,67,0.00,CLR,,0.00,WeatherDisplay:10.37,2013-03-02 14:19:00,
2013-03-02 09:24:00,54.6,44.2,30.03,NW,315,0.2,2.0,68,0.00,CLR,,0.00,WeatherDisplay:10.37,2013-03-02 14:24:00,
2013-03-02 09:29:00,55.0,44.2,30.03,NNW,335,2.6,5.8,67,0.00,CLR,,0.00,WeatherDisplay:10.37,2013-03-02 14:29:00,
2013-03-02 09:34:00,55.2,44.4,30.03,NW,307,3.3,4.6,67,0.00,CLR,,0.00,WeatherDisplay:10.37,2013-03-02 14:34:00,
2013-03-02 09:39:00,55.4,43.8,30.03,NW,306,1.7,4.6,65,0.00,CLR,,0.00,WeatherDisplay:10.37,2013-03-02 14:39:00,
2013-03-02 09:44:00,55.6,44.4,30.03,NW,311,3.6,5.8,66,0.00,CLR,,0.00,WeatherDisplay:10.37,2013-03-02 14:44:00,
2013-03-02 09:49:00,55.6,43.6,30.03,North,355,3.2,5.8,64,0.00,CLR,,0.00,WeatherDisplay:10.37,2013-03-02 14:49:00,
2013-03-02 09:54:00,55.8,44.2,30.03,NNE,15,2.3,8.1,65,0.00,CLR,,0.00,WeatherDisplay:10.37,2013-03-02 14:54:00,
2013-03-02 09:59:00,56.0,44.0,30.03,NW,315,4.3,6.9,64,0.00,CLR,,0.00,WeatherDisplay:10.37,2013-03-02 14:59:00,
2013-03-02 10:05:00,56.0,44.8,30.03,North,5,2.4,6.9,66,0.00,CLR,,0.00,WeatherDisplay:10.37,2013-03-02 15:05:00,
2013-03-02 10:10:00,56.0,44.4,30.03,North,351,0.8,3.5,65,0.00,CLR,,0.00,WeatherDisplay:10.37,2013-03-02 15:10:00,
2013-03-02 10:15:00,56.1,42.8,30.02,WNW,301,5.1,6.9,61,0.00,CLR,,0.00,WeatherDisplay:10.37,2013-03-02 15:15:00,
2013-03-02 10:20:00,56.2,43.3,30.02,North,11,2.5,4.6,62,0.00,CLR,,0.00,WeatherDisplay:10.37,2013-03-02 15:20:00,
2013-03-02 10:25:00,56.2,42.9,30.02,WNW,290,1.4,5.8,61,0.00,CLR,,0.00,WeatherDisplay:10.37,2013-03-02 15:25:00,
2013-03-02 10:30:00,56.6,44.1,30.02,NNE,24,2.5,4.6,63,0.00,CLR,,0.00,WeatherDisplay:10.37,2013-03-02 15:30:00,
2013-03-02 10:35:00,56.8,43.9,30.02,NNW,343,2.4,3.5,62,0.00,CLR,,0.00,WeatherDisplay:10.37,2013-03-02 15:35:00,
2013-03-02 10:40:00,56.9,43.6,30.02,NW,306,1.0,2.3,61,0.00,CLR,,0.00,WeatherDisplay:10.37,2013-03-02 15:40:00,
2013-03-02 10:45:00,57.1,42.9,30.02,North,355,4.2,6.9,59,0.00,CLR,,0.00,WeatherDisplay:10.37,2013-03-02 15:45:00,
2013-03-02 10:50:00,57.4,43.2,30.02,NW,310,1.5,3.5,59,0.00,CLR,,0.00,WeatherDisplay:10.37,2013-03-02 15:50:00,
2013-03-02 10:55:00,57.8,42.7,30.02,NW,305,7.2,9.2,57,0.00,CLR,,0.00,WeatherDisplay:10.37,2013-03-02 15:55:00,
2013-03-02 11:00:00,58.1,42.5,30.02,WNW,303,3.0,6.9,56,0.00,CLR,,0.00,WeatherDisplay:10.37,2013-03-02 16:00:00,
2013-03-02 11:05:00,58.3,42.2,30.02,West,266,2.9,4.6,55,0.00,CLR,,0.00,WeatherDisplay:10.37,2013-03-02 16:05:00,
2013-03-02 11:10:00,58.7,43.0,30.02,WNW,288,1.9,6.9,56,0.00,CLR,,0.00,WeatherDisplay:10.37,2013-03-02 16:10:00,
2013-03-02 11:15:00,59.2,43.0,30.01,WNW,298,4.3,4.6,55,0.00,CLR,,0.00,WeatherDisplay:10.37,2013-03-02 16:15:00,
2013-03-02 11:20:00,59.5,43.8,30.01,WNW,297,3.3,5.8,56,0.00,CLR,,0.00,WeatherDisplay:10.37,2013-03-02 16:20:00,
2013-03-02 11:25:00,59.7,42.5,30.01,NNW,327,2.2,5.8,53,0.00,CLR,,0.00,WeatherDisplay:10.37,2013-03-02 16:25:00,
2013-03-02 11:30:00,59.8,42.1,30.02,WNW,293,8.7,8.7,52,0.00,CLR,,0.00,WeatherDisplay:10.37,2013-03-02 16:30:00,
2013-03-02 11:35:00,60.0,41.8,30.01,NW,309,4.6,6.9,51,0.00,CLR,,0.00,WeatherDisplay:10.37,2013-03-02 16:35:00,
2013-03-02 11:40:00,60.6,43.9,30.02,West,278,5.7,9.2,54,0.00,CLR,,0.00,WeatherDisplay:10.37,2013-03-02 16:40:00,
2013-03-02 11:45:00,61.1,42.8,30.01,West,279,8.1,11.5,51,0.00,CLR,,0.00,WeatherDisplay:10.37,2013-03-02 16:45:00,
2013-03-02 11:50:00,61.1,42.8,30.01,NW,314,4.5,11.5,51,0.00,CLR,,0.00,WeatherDisplay:10.37,2013-03-02 16:50:00,
2013-03-02 11:55:00,61.1,43.3,30.00,WNW,291,6.2,6.2,52,0.00,CLR,,0.00,WeatherDisplay:10.37,2013-03-02 16:55:00,
2013-03-02 12:00:00,61.4,43.1,30.00,NNW,337,8.6,10.4,51,0.00,CLR,,0.00,WeatherDisplay:10.37,2013-03-02 17:00:00,
2013-03-02 12:05:00,61.3,43.0,30.00,West,275,4.8,11.5,51,0.00,CLR,,0.00,WeatherDisplay:10.37,2013-03-02 17:05:00,
2013-03-02 12:10:00,61.3,42.5,30.00,West,271,7.9,11.5,50,0.00,CLR,,0.00,WeatherDisplay:10.37,2013-03-02 17:10:00,
2013-03-02 12:15:00,61.8,43.5,30.00,WSW,240,5.7,6.9,51,0.00,CLR,,0.00,WeatherDisplay:10.37,2013-03-02 17:15:00,
2013-03-02 12:20:00,62.1,43.7,29.99,WNW,302,4.9,9.2,51,0.00,CLR,,0.00,WeatherDisplay:10.37,2013-03-02 17:20:00,
2013-03-02 12:25:00,62.7,44.8,30.00,NNW,329,6.9,9.2,52,0.00,CLR,,0.00,WeatherDisplay:10.37,2013-03-02 17:25:00,
2013-03-02 12:30:00,62.5,43.1,29.99,WNW,283,6.3,9.2,49,0.00,CLR,,0.00,WeatherDisplay:10.37,2013-03-02 17:30:00,
2013-03-02 12:35:00,63.2,45.3,29.99,WNW,301,5.0,10.4,52,0.00,CLR,,0.00,WeatherDisplay:10.37,2013-03-02 17:35:00,
2013-03-02 12:40:00,63.7,45.7,29.99,WNW,299,3.6,11.5,52,0.00,CLR,,0.00,WeatherDisplay:10.37,2013-03-02 17:40:00,
2013-03-02 12:45:00,64.2,47.2,29.99,WNW,282,8.7,11.5,54,0.00,CLR,,0.00,WeatherDisplay:10.37,2013-03-02 17:45:00,
2013-03-02 12:50:00,64.8,46.2,29.98,NNW,327,6.3,9.2,51,0.00,CLR,,0.00,WeatherDisplay:10.37,2013-03-02 17:50:00,
2013-03-02 12:55:00,65.1,46.5,29.98,NW,323,8.7,11.0,51,0.00,CLR,,0.00,WeatherDisplay:10.37,2013-03-02 17:55:00,
2013-03-02 13:00:00,64.9,45.3,29.98,NW,309,5.5,9.2,49,0.00,CLR,,0.00,WeatherDisplay:10.37,2013-03-02 18:00:00,
2013-03-02 13:05:00,64.5,44.9,29.98,NNE,24,7.4,12.7,49,0.00,CLR,,0.00,WeatherDisplay:10.37,2013-03-02 18:05:00,
2013-03-02 13:10:00,64.5,44.9,29.98,WNW,294,7.2,12.7,49,0.00,CLR,,0.00,WeatherDisplay:10.37,2013-03-02 18:10:00,
2013-03-02 13:15:00,64.5,45.4,29.98,WNW,288,6.6,10.4,50,0.00,CLR,,0.00,WeatherDisplay:10.37,2013-03-02 18:15:00,
2013-03-02 13:20:00,64.9,46.8,29.98,West,281,7.0,11.5,52,0.00,CLR,,0.00,WeatherDisplay:10.37,2013-03-02 18:20:00,
2013-03-02 13:25:00,65.1,46.0,29.98,NW,304,6.2,13.8,50,0.00,CLR,,0.00,WeatherDisplay:10.37,2013-03-02 18:25:00,
2013-03-02 13:30:00,64.9,44.7,29.97,West,259,8.2,11.5,48,0.00,CLR,,0.00,WeatherDisplay:10.37,2013-03-02 18:30:00,
2013-03-02 13:35:00,64.6,45.5,29.97,WNW,301,9.0,19.6,50,0.00,CLR,,0.00,WeatherDisplay:10.37,2013-03-02 18:35:00,
2013-03-02 13:40:00,64.3,45.3,29.97,NW,324,5.4,8.1,50,0.00,CLR,,0.00,WeatherDisplay:10.37,2013-03-02 18:40:00,
2013-03-02 13:45:00,64.6,47.1,29.96,NNW,327,5.5,10.4,53,0.00,CLR,,0.00,WeatherDisplay:10.37,2013-03-02 18:45:00,
2013-03-02 13:50:00,65.2,47.6,29.96,WSW,244,6.5,12.7,53,0.00,CLR,,0.00,WeatherDisplay:10.37,2013-03-02 18:50:00,
2013-03-02 13:55:00,65.7,48.1,29.96,WSW,254,8.1,12.7,53,0.00,CLR,,0.00,WeatherDisplay:10.37,2013-03-02 18:55:00,
2013-03-02 14:00:00,66.3,47.6,29.95,NNW,330,9.9,15.0,51,0.00,CLR,,0.00,WeatherDisplay:10.37,2013-03-02 19:00:00,
2013-03-02 14:05:00,66.2,47.0,29.95,NW,311,8.6,12.7,50,0.00,CLR,,0.00,WeatherDisplay:10.37,2013-03-02 19:05:00,
2013-03-02 14:10:00,66.1,46.9,29.95,West,277,8.1,16.1,50,0.00,CLR,,0.00,WeatherDisplay:10.37,2013-03-02 19:10:00,
2013-03-02 14:15:00,66.8,47.0,29.95,West,262,10.7,15.0,49,0.00,CLR,,0.00,WeatherDisplay:10.37,2013-03-02 19:15:00,
2013-03-02 14:20:00,67.2,46.3,29.96,West,273,8.6,10.4,47,0.00,CLR,,0.00,WeatherDisplay:10.37,2013-03-02 19:20:00,
2013-03-02 14:25:00,67.3,45.8,29.96,NNW,333,12.0,17.3,46,0.00,CLR,,0.00,WeatherDisplay:10.37,2013-03-02 19:25:00,
2013-03-02 14:30:00,67.1,46.2,29.96,NW,318,9.7,13.8,47,0.00,CLR,,0.00,WeatherDisplay:10.37,2013-03-02 19:30:00,
2013-03-02 14:35:00,67.0,47.2,29.96,NNW,328,9.1,12.7,49,0.00,CLR,,0.00,WeatherDisplay:10.37,2013-03-02 19:35:00,
2013-03-02 14:41:00,66.7,45.3,29.96,NW,326,12.5,17.3,46,0.00,CLR,,0.00,WeatherDisplay:10.37,2013-03-02 19:41:00,
2013-03-02 14:46:00,66.2,45.4,29.96,WSW,248,9.1,19.6,47,0.00,CLR,,0.00,WeatherDisplay:10.37,2013-03-02 19:46:00,
2013-03-02 14:51:00,65.4,45.2,29.96,WNW,294,10.2,17.3,48,0.00,CLR,,0.00,WeatherDisplay:10.37,2013-03-02 19:51:00,
2013-03-02 14:56:00,65.0,45.4,29.95,NNW,330,4.6,9.0,49,0.00,CLR,,0.00,WeatherDisplay:10.37,2013-03-02 19:56:00,
2013-03-02 15:01:00,64.9,44.7,29.96,WNW,297,6.4,13.8,48,0.00,CLR,,0.00,WeatherDisplay:10.37,2013-03-02 20:01:00,
2013-03-02 15:06:00,64.9,45.3,29.95,NW,313,11.2,17.3,49,0.00,CLR,,0.00,WeatherDisplay:10.37,2013-03-02 20:06:00,
2013-03-02 15:11:00,65.3,45.1,29.96,NW,309,5.1,11.5,48,0.00,CLR,,0.00,WeatherDisplay:10.37,2013-03-02 20:11:00,
2013-03-02 15:16:00,65.5,44.7,29.95,WNW,283,6.4,16.1,47,0.00,CLR,,0.00,WeatherDisplay:10.37,2013-03-02 20:16:00,
2013-03-02 15:21:00,65.3,45.1,29.95,West,273,10.6,15.0,48,0.00,CLR,,0.00,WeatherDisplay:10.37,2013-03-02 20:21:00,
2013-03-02 15:26:00,65.5,45.3,29.95,NW,312,6.7,9.2,48,0.00,CLR,,0.00,WeatherDisplay:10.37,2013-03-02 20:26:00,
2013-03-02 15:31:00,65.2,44.5,29.95,West,279,7.3,11.5,47,0.00,CLR,,0.00,WeatherDisplay:10.37,2013-03-02 20:31:00,
2013-03-02 15:36:00,65.0,45.4,29.95,West,259,10.2,16.1,49,0.00,CLR,,0.00,WeatherDisplay:10.37,2013-03-02 20:36:00,
2013-03-02 15:41:00,64.8,44.6,29.95,NNW,336,8.9,15.0,48,0.00,CLR,,0.00,WeatherDisplay:10.37,2013-03-02 20:41:00,
2013-03-02 15:46:00,64.1,44.0,29.95,WNW,287,10.1,16.1,48,0.00,CLR,,0.00,WeatherDisplay:10.37,2013-03-02 20:46:00,
2013-03-02 15:51:00,64.1,44.0,29.96,West,281,8.1,11.5,48,0.00,CLR,,0.00,WeatherDisplay:10.37,2013-03-02 20:51:00,
2013-03-02 15:56:00,64.2,45.2,29.96,NW,323,4.0,5.8,50,0.00,CLR,,0.00,WeatherDisplay:10.37,2013-03-02 20:56:00,
2013-03-02 16:01:00,63.8,43.7,29.96,NW,321,8.0,13.8,48,0.00,CLR,,0.00,WeatherDisplay:10.37,2013-03-02 21:01:00,
2013-03-02 16:06:00,63.1,43.6,29.96,NW,311,8.1,15.0,49,0.00,CLR,,0.00,WeatherDisplay:10.37,2013-03-02 21:06:00,
2013-03-02 16:11:00,62.8,43.3,29.95,NW,310,8.5,15.0,49,0.00,CLR,,0.00,WeatherDisplay:10.37,2013-03-02 21:11:00,
2013-03-02 16:16:00,62.8,43.3,29.96,WNW,286,9.3,16.0,49,0.00,CLR,,0.00,WeatherDisplay:10.37,2013-03-02 21:16:00,
2013-03-02 16:21:00,62.8,43.3,29.96,West,271,11.8,17.3,49,0.00,CLR,,0.00,WeatherDisplay:10.37,2013-03-02 21:21:00,
2013-03-02 16:26:00,62.9,42.9,29.96,WNW,290,8.6,18.4,48,0.00,CLR,,0.00,WeatherDisplay:10.37,2013-03-02 21:26:00,
2013-03-02 16:31:00,63.0,43.0,29.96,West,277,9.4,9.4,48,0.00,CLR,,0.00,WeatherDisplay:10.37,2013-03-02 21:31:00,
2013-03-02 16:36:00,62.7,41.6,29.96,WNW,302,11.5,16.1,46,0.00,CLR,,0.00,WeatherDisplay:10.37,2013-03-02 21:36:00,
2013-03-02 16:41:00,62.8,42.8,29.96,NW,305,4.2,11.5,48,0.00,CLR,,0.00,WeatherDisplay:10.37,2013-03-02 21:41:00,
2013-03-02 16:46:00,62.7,42.2,29.96,WNW,297,9.0,11.5,47,0.00,CLR,,0.00,WeatherDisplay:10.37,2013-03-02 21:46:00,
2013-03-02 16:51:00,62.2,43.3,29.97,West,274,6.8,9.2,50,0.00,CLR,,0.00,WeatherDisplay:10.37,2013-03-02 21:51:00,
2013-03-02 16:56:00,61.8,43.0,29.96,West,279,8.2,11.5,50,0.00,CLR,,0.00,WeatherDisplay:10.37,2013-03-02 21:56:00,
2013-03-02 17:01:00,61.5,43.2,29.96,NW,306,2.5,6.0,51,0.00,CLR,,0.00,WeatherDisplay:10.37,2013-03-02 22:01:00,
2013-03-02 17:06:00,61.4,43.6,29.96,WNW,287,6.2,6.9,52,0.00,CLR,,0.00,WeatherDisplay:10.37,2013-03-02 22:06:00,
2013-03-02 17:11:00,61.5,43.7,29.97,WNW,301,8.3,13.8,52,0.00,CLR,,0.00,WeatherDisplay:10.37,2013-03-02 22:11:00,
2013-03-02 17:16:00,61.5,43.7,29.97,West,259,10.1,13.8,52,0.00,CLR,,0.00,WeatherDisplay:10.37,2013-03-02 22:16:00,
2013-03-02 17:21:00,61.2,43.4,29.97,West,277,7.2,11.5,52,0.00,CLR,,0.00,WeatherDisplay:10.37,2013-03-02 22:21:00,
2013-03-02 17:26:00,61.1,42.8,29.97,WNW,300,5.4,11.5,51,0.00,CLR,,0.00,WeatherDisplay:10.37,2013-03-02 22:26:00,
2013-03-02 17:31:00,60.9,42.6,29.98,WNW,292,5.6,8.1,51,0.00,CLR,,0.00,WeatherDisplay:10.37,2013-03-02 22:31:00,
2013-03-02 17:36:00,60.7,43.0,29.98,NW,305,4.0,4.0,52,0.00,CLR,,0.00,WeatherDisplay:10.37,2013-03-02 22:36:00,
2013-03-02 17:41:00,60.5,42.8,29.98,WNW,291,1.4,2.3,52,0.00,CLR,,0.00,WeatherDisplay:10.37,2013-03-02 22:41:00,
2013-03-02 17:46:00,60.4,43.2,29.98,WNW,294,1.6,3.5,53,0.00,CLR,,0.00,WeatherDisplay:10.37,2013-03-02 22:46:00,
2013-03-02 17:51:00,60.3,43.1,29.98,NW,304,8.0,8.1,53,0.00,CLR,,0.00,WeatherDisplay:10.37,2013-03-02 22:51:00,
2013-03-02 17:56:00,60.2,43.5,29.98,NW,314,2.8,4.6,54,0.00,CLR,,0.00,WeatherDisplay:10.37,2013-03-02 22:56:00,
2013-03-02 18:01:00,60.1,43.4,29.99,NW,306,5.5,6.9,54,0.00,CLR,,0.00,WeatherDisplay:10.37,2013-03-02 23:01:00,
2013-03-02 18:06:00,60.0,43.3,29.99,WNW,298,3.1,3.5,54,0.00,CLR,,0.00,WeatherDisplay:10.37,2013-03-02 23:06:00,
2013-03-02 18:11:00,59.9,43.7,29.99,West,278,3.0,4.6,55,0.00,CLR,,0.00,WeatherDisplay:10.37,2013-03-02 23:11:00,
2013-03-02 18:16:00,59.8,44.1,29.99,West,278,2.6,3.5,56,0.00,CLR,,0.00,WeatherDisplay:10.37,2013-03-02 23:16:00,
2013-03-02 18:21:00,59.6,43.9,29.99,WNW,282,1.9,3.5,56,0.00,CLR,,0.00,WeatherDisplay:10.37,2013-03-02 23:21:00,
2013-03-02 18:26:00,59.3,44.1,29.99,WNW,294,0.7,2.3,57,0.00,CLR,,0.00,WeatherDisplay:10.37,2013-03-02 23:26:00,
2013-03-02 18:31:00,59.1,43.4,29.99,West,273,2.8,3.5,56,0.00,CLR,,0.00,WeatherDisplay:10.37,2013-03-02 23:31:00,
2013-03-02 18:36:00,59.0,43.8,29.99,WNW,291,0.9,2.3,57,0.00,CLR,,0.00,WeatherDisplay:10.37,2013-03-02 23:36:00,
2013-03-02 18:41:00,58.9,43.7,30.00,NW,324,6.2,10.4,57,0.00,CLR,,0.00,WeatherDisplay:10.37,2013-03-02 23:41:00,
2013-03-02 18:46:00,58.7,42.6,30.00,NW,308,2.1,5.8,55,0.00,CLR,,0.00,WeatherDisplay:10.37,2013-03-02 23:46:00,
2013-03-02 18:51:00,58.5,41.9,30.01,WNW,298,7.0,10.4,54,0.00,CLR,,0.00,WeatherDisplay:10.37,2013-03-02 23:51:00,
2013-03-02 18:56:00,58.2,41.1,30.01,WNW,288,7.7,11.5,53,0.00,CLR,,0.00,WeatherDisplay:10.37,2013-03-02 23:56:00,
2013-03-02 19:01:00,58.1,41.5,30.01,NW,323,1.2,3.5,54,0.00,CLR,,0.00,WeatherDisplay:10.37,2013-03-03 00:01:00,
2013-03-02 19:07:00,57.8,41.3,30.01,WNW,294,4.6,9.2,54,0.00,CLR,,0.00,WeatherDisplay:10.37,2013-03-03 00:07:00,
2013-03-02 19:12:00,57.7,41.6,30.01,West,261,1.2,10.4,55,0.00,CLR,,0.00,WeatherDisplay:10.37,2013-03-03 00:12:00,
2013-03-02 19:17:00,57.5,41.9,30.01,NNW,327,4.9,8.1,56,0.00,CLR,,0.00,WeatherDisplay:10.37,2013-03-03 00:17:00,
2013-03-02 19:22:00,57.3,41.7,30.01,NW,313,3.3,6.9,56,0.00,CLR,,0.00,WeatherDisplay:10.37,2013-03-03 00:22:00,
2013-03-02 19:27:00,57.2,42.1,30.01,NW,310,5.4,5.8,57,0.00,CLR,,0.00,WeatherDisplay:10.37,2013-03-03 00:27:00,
2013-03-02 19:32:00,57.2,42.1,30.01,WNW,285,6.6,12.7,57,0.00,CLR,,0.00,WeatherDisplay:10.37,2013-03-03 00:32:00,
2013-03-02 19:37:00,57.1,42.5,30.02,NW,308,2.2,6.9,58,0.00,CLR,,0.00,WeatherDisplay:10.37,2013-03-03 00:37:00,
2013-03-02 19:42:00,57.0,42.8,30.02,WNW,284,3.3,5.8,59,0.00,CLR,,0.00,WeatherDisplay:10.37,2013-03-03 00:42:00,
2013-03-02 19:47:00,56.9,43.2,30.02,WNW,297,1.4,3.5,60,0.00,CLR,,0.00,WeatherDisplay:10.37,2013-03-03 00:47:00,
2013-03-02 19:52:00,56.8,43.5,30.03,WNW,290,2.7,3.5,61,0.00,CLR,,0.00,WeatherDisplay:10.37,2013-03-03 00:52:00,
2013-03-02 19:57:00,56.6,43.3,30.03,NW,306,3.7,4.6,61,0.00,CLR,,0.00,WeatherDisplay:10.37,2013-03-03 00:57:00,
2013-03-02 20:02:00,56.6,43.7,30.03,WNW,298,1.7,3.5,62,0.00,CLR,,0.00,WeatherDisplay:10.37,2013-03-03 01:02:00,
2013-03-02 20:07:00,56.4,43.5,30.03,NW,308,1.5,4.0,62,0.00,CLR,,0.00,WeatherDisplay:10.37,2013-03-03 01:07:00,
2013-03-02 20:12:00,56.3,43.4,30.03,NW,311,5.2,5.8,62,0.00,CLR,,0.00,WeatherDisplay:10.37,2013-03-03 01:12:00,
2013-03-02 20:17:00,56.2,43.8,30.03,NNW,327,0.7,2.3,63,0.00,CLR,,0.00,WeatherDisplay:10.37,2013-03-03 01:17:00,
2013-03-02 20:22:00,56.1,43.7,30.03,NW,306,2.0,3.5,63,0.00,CLR,,0.00,WeatherDisplay:10.37,2013-03-03 01:22:00,
2013-03-02 20:27:00,56.0,43.6,30.03,NW,306,1.0,2.3,63,0.00,CLR,,0.00,WeatherDisplay:10.37,2013-03-03 01:27:00,
2013-03-02 20:32:00,55.8,43.8,30.03,NW,306,1.0,3.5,64,0.00,CLR,,0.00,WeatherDisplay:10.37,2013-03-03 01:32:00,
2013-03-02 20:37:00,55.7,43.7,30.03,NW,306,0.0,0.0,64,0.00,CLR,,0.00,WeatherDisplay:10.37,2013-03-03 01:37:00,
2013-03-02 20:42:00,55.5,43.9,30.03,NW,306,0.0,0.0,65,0.00,CLR,,0.00,WeatherDisplay:10.37,2013-03-03 01:42:00,
2013-03-02 20:47:00,55.3,44.5,30.03,NW,306,0.0,0.0,67,0.00,CLR,,0.00,WeatherDisplay:10.37,2013-03-03 01:47:00,
2013-03-02 20:52:00,54.9,45.7,30.03,NW,306,0.0,0.0,71,0.00,CLR,,0.00,WeatherDisplay:10.37,2013-03-03 01:52:00,
2013-03-02 20:57:00,54.6,45.8,30.03,NW,306,0.0,0.0,72,0.00,CLR,,0.00,WeatherDisplay:10.37,2013-03-03 01:57:00,
2013-03-02 21:02:00,54.4,45.9,30.03,NW,306,0.0,0.0,73,0.00,CLR,,0.00,WeatherDisplay:10.37,2013-03-03 02:02:00,
2013-03-02 21:07:00,54.1,45.6,30.04,NW,306,0.0,0.0,73,0.00,CLR,,0.00,WeatherDisplay:10.37,2013-03-03 02:07:00,
2013-03-02 21:12:00,54.0,45.9,30.03,NW,306,0.0,0.0,74,0.00,CLR,,0.00,WeatherDisplay:10.37,2013-03-03 02:12:00,
2013-03-02 21:17:00,53.9,46.5,30.03,NW,306,0.0,0.0,76,0.00,CLR,,0.00,WeatherDisplay:10.37,2013-03-03 02:17:00,
2013-03-02 21:22:00,53.7,46.3,30.04,NW,306,0.0,0.0,76,0.00,CLR,,0.00,WeatherDisplay:10.37,2013-03-03 02:22:00,
2013-03-02 21:27:00,53.6,46.2,30.04,NW,306,0.0,0.0,76,0.00,CLR,,0.00,WeatherDisplay:10.37,2013-03-03 02:27:00,
2013-03-02 21:32:00,53.5,46.8,30.03,NW,306,0.0,0.0,78,0.00,CLR,,0.00,WeatherDisplay:10.37,2013-03-03 02:32:00,
2013-03-02 21:37:00,53.4,47.0,30.04,NW,306,0.0,0.0,79,0.00,CLR,,0.00,WeatherDisplay:10.37,2013-03-03 02:37:00,
2013-03-02 21:42:00,53.3,46.6,30.04,NW,306,0.0,0.0,78,0.00,CLR,,0.00,WeatherDisplay:10.37,2013-03-03 02:42:00,
2013-03-02 21:47:00,53.2,46.2,30.04,NW,306,0.0,0.0,77,0.00,CLR,,0.00,WeatherDisplay:10.37,2013-03-03 02:47:00,
2013-03-02 21:52:00,53.2,45.8,30.04,NW,306,0.0,0.0,76,0.00,CLR,,0.00,WeatherDisplay:10.37,2013-03-03 02:52:00,
2013-03-02 21:57:00,53.1,45.7,30.04,NW,306,0.0,0.0,76,0.00,CLR,,0.00,WeatherDisplay:10.37,2013-03-03 02:57:00,
2013-03-02 22:03:00,53.1,45.4,30.04,NW,306,0.0,0.0,75,0.00,CLR,,0.00,WeatherDisplay:10.37,2013-03-03 03:03:00,
2013-03-02 22:08:00,53.2,46.5,30.04,NW,306,0.0,0.0,78,0.00,CLR,,0.00,WeatherDisplay:10.37,2013-03-03 03:08:00,
2013-03-02 22:13:00,53.2,46.9,30.04,NW,306,0.0,0.0,79,0.00,CLR,,0.00,WeatherDisplay:10.37,2013-03-03 03:13:00,
2013-03-02 22:18:00,53.2,47.2,30.04,NW,306,0.0,0.0,80,0.00,CLR,,0.00,WeatherDisplay:10.37,2013-03-03 03:18:00,
2013-03-02 22:23:00,53.0,47.0,30.04,NW,306,0.0,0.0,80,0.00,CLR,,0.00,WeatherDisplay:10.37,2013-03-03 03:23:00,
2013-03-02 22:28:00,52.8,46.8,30.03,NW,306,0.0,0.0,80,0.00,CLR,,0.00,WeatherDisplay:10.37,2013-03-03 03:28:00,
2013-03-02 22:33:00,52.6,45.9,30.03,NW,306,0.0,0.0,78,0.00,CLR,,0.00,WeatherDisplay:10.37,2013-03-03 03:33:00,
2013-03-02 22:38:00,52.4,45.7,30.03,NW,306,0.0,0.0,78,0.00,CLR,,0.00,WeatherDisplay:10.37,2013-03-03 03:38:00,
2013-03-02 22:43:00,52.1,45.8,30.03,NW,306,0.0,0.0,79,0.00,CLR,,0.00,WeatherDisplay:10.37,2013-03-03 03:43:00,
2013-03-02 22:48:00,51.9,46.3,30.04,NW,306,0.0,0.0,81,0.00,CLR,,0.00,WeatherDisplay:10.37,2013-03-03 03:48:00,
2013-03-02 22:53:00,51.8,46.2,30.03,NW,306,0.0,0.0,81,0.00,CLR,,0.00,WeatherDisplay:10.37,2013-03-03 03:53:00,
2013-03-02 22:58:00,51.7,46.7,30.03,NW,306,0.0,0.0,83,0.00,CLR,,0.00,WeatherDisplay:10.37,2013-03-03 03:58:00,
2013-03-02 23:03:00,51.5,46.8,30.03,NW,306,0.0,0.0,84,0.00,CLR,,0.00,WeatherDisplay:10.37,2013-03-03 04:03:00,
2013-03-02 23:08:00,51.5,47.1,30.03,NW,306,0.0,0.0,85,0.00,CLR,,0.00,WeatherDisplay:10.37,2013-03-03 04:08:00,
2013-03-02 23:13:00,51.3,46.9,30.02,NW,306,0.0,0.0,85,0.00,CLR,,0.00,WeatherDisplay:10.37,2013-03-03 04:13:00,
2013-03-02 23:18:00,51.0,46.3,30.02,NW,306,0.0,0.0,84,0.00,CLR,,0.00,WeatherDisplay:10.37,2013-03-03 04:18:00,
2013-03-02 23:23:00,50.7,46.0,30.02,NW,306,0.0,0.0,84,0.00,CLR,,0.00,WeatherDisplay:10.37,2013-03-03 04:23:00,
2013-03-02 23:28:00,50.5,46.2,30.02,NW,306,0.0,0.0,85,0.00,CLR,,0.00,WeatherDisplay:10.37,2013-03-03 04:28:00,
2013-03-02 23:33:00,50.6,46.9,30.02,NW,306,0.0,0.0,87,0.00,CLR,,0.00,WeatherDisplay:10.37,2013-03-03 04:33:00,
2013-03-02 23:38:00,50.6,47.2,30.02,NW,306,0.0,0.0,88,0.00,CLR,,0.00,WeatherDisplay:10.37,2013-03-03 04:38:00,
2013-03-02 23:43:00,50.6,47.2,30.01,NW,306,0.0,0.0,88,0.00,CLR,,0.00,WeatherDisplay:10.37,2013-03-03 04:43:00,
2013-03-02 23:48:00,50.4,47.0,30.02,NW,306,0.0,0.0,88,0.00,CLR,,0.00,WeatherDisplay:10.37,2013-03-03 04:48:00,
2013-03-02 23:53:00,50.3,46.9,30.02,NW,306,0.0,0.0,88,0.00,CLR,,0.00,WeatherDisplay:10.37,2013-03-03 04:53:00,
2013-03-02 23:58:00,50.2,46.8,30.01,NW,306,0.0,0.0,88,0.00,CLR,,0.00,WeatherDisplay:10.37,2013-03-03 04:58:00,